KONZ

Grosse Ile Municipal Airport

Detroit/Grosse Ile, Michigan, USA
METAR KONZ 190635Z AUTO 25009KT 10SM CLR M04/M09 A2997 RMK AO2 T10401094
Observed Flight Rules
Jan-19 @ 06:35 UTC (35 minutes ago) Visual Flight Rules
Wind Visibility Clouds
250° at 9 knots 10 miles
  • Clear skies
Temperatures Readings
Current -4°C / 25°F
Dewpoint -9°C / 16°F
Humidity 69%
Altimeter 29.97" Hg
Pressure 1015 hPa
Elevation 180
METAR KONZ 190635Z AUTO 25009KT 10SM CLR M04/M09 A2997 RMK AO2 T10401094
Observed Flight Rules
Jan-19 @ 06:35 UTC
(35 minutes ago)
VFR
Wind Visibility
250° at 9 knots 10 miles
Clouds
  • Clear skies
Temperature Dewpoint
-4°C / 25°F -9°C / 16°F
Humidity Altimeter Pressure
69% 29.97" Hg 1015 hPa